Time;durP1;ratioP1;P1;durP2;ratioP2;P2;SDS_P1;SDS_P2;PMS_P1;PMS_P2;Temp;Humidity;BMP_temperature;BMP_pressure;BME280_temperature;BME280_humidity;BME280_pressure;Samples;Min_cycle;Max_cycle;Signal;HPM_P1;HPM_P2
2022/02/02 00:01:41;;;;;;;6.80;1.00;;;22.60;99.90;;;;;;5056364;28;19927;-76
2022/02/02 00:04:12;;;;;;;4.47;1.10;;;22.80;99.90;;;;;;5059733;28;20472;-74
2022/02/02 00:06:47;;;;;;;3.08;1.40;;;22.80;99.90;;;;;;5061462;28;20036;-73
2022/02/02 00:09:17;;;;;;;3.85;1.45;;;22.80;99.90;;;;;;5061532;28;20035;-74
2022/02/02 00:17:12;;;;;;;5.82;2.22;;;22.90;99.90;;;;;;5056526;28;20198;-76
2022/02/02 00:19:59;;;;;;;7.38;1.58;;;22.90;99.90;;;;;;5061199;28;20364;-73
2022/02/02 00:22:34;;;;;;;3.50;1.73;;;22.90;99.90;;;;;;5056826;28;20119;-74
2022/02/02 00:25:09;;;;;;;5.33;1.53;;;23.10;99.90;;;;;;5051200;28;20465;-74
2022/02/02 00:27:37;;;;;;;4.35;1.60;;;23.20;99.90;;;;;;5053209;28;20110;-74
2022/02/02 00:30:06;;;;;;;3.65;1.20;;;23.30;99.90;;;;;;5052272;28;20776;-73
2022/02/02 00:35:01;;;;;;;4.32;1.52;;;23.20;99.90;;;;;;5051033;28;20436;-72
2022/02/02 00:37:28;;;;;;;5.40;1.27;;;23.00;99.90;;;;;;5050656;28;20495;-73
2022/02/02 00:39:56;;;;;;;4.25;1.65;;;23.00;99.90;;;;;;5053005;28;20034;-72
2022/02/02 00:42:29;;;;;;;5.15;1.70;;;23.10;99.90;;;;;;5047554;28;20071;-74
2022/02/02 00:45:02;;;;;;;5.50;1.42;;;23.30;99.90;;;;;;5053225;28;20040;-73
2022/02/02 00:47:36;;;;;;;11.02;1.45;;;23.30;99.90;;;;;;5057822;28;20537;-74
2022/02/02 00:50:04;;;;;;;5.45;1.55;;;23.40;99.90;;;;;;5053967;28;20091;-74
2022/02/02 00:52:32;;;;;;;6.60;1.40;;;23.40;99.90;;;;;;5053907;28;20025;-75
2022/02/02 00:54:59;;;;;;;9.48;1.23;;;23.50;99.90;;;;;;5050569;28;20041;-75
2022/02/02 00:57:28;;;;;;;6.72;1.58;;;23.50;99.90;;;;;;5054124;28;20032;-76
2022/02/02 00:59:57;;;;;;;6.22;2.15;;;23.50;99.90;;;;;;5069355;28;20060;-75
2022/02/02 01:02:25;;;;;;;4.43;1.88;;;23.70;99.90;;;;;;5056381;28;20036;-75
2022/02/02 01:04:52;;;;;;;11.85;1.50;;;23.70;99.90;;;;;;5062485;28;20036;-75
2022/02/02 01:10:18;;;;;;;6.80;1.15;;;23.80;99.90;;;;;;5065114;28;20120;-76
2022/02/02 01:18:18;;;;;;;8.77;2.13;;;24.00;99.90;;;;;;5055065;28;20032;-74
2022/02/02 01:21:01;;;;;;;3.97;1.10;;;23.90;99.90;;;;;;5056757;28;20083;-75
2022/02/02 01:29:00;;;;;;;;;;;23.70;99.90;;;;;;5060961;28;20482;-74
2022/02/02 01:31:28;;;;;;;6.65;1.42;;;23.70;99.90;;;;;;5054541;28;19995;-75
2022/02/02 01:33:55;;;;;;;10.18;1.90;;;23.60;99.90;;;;;;5058919;28;20245;-74
2022/02/02 01:36:23;;;;;;;7.55;1.48;;;23.50;99.90;;;;;;5053738;28;20070;-75
2022/02/02 01:38:52;;;;;;;9.32;2.08;;;23.50;99.90;;;;;;5055909;28;20033;-74
2022/02/02 01:41:26;;;;;;;9.00;1.25;;;23.40;99.90;;;;;;5054605;28;20131;-75
2022/02/02 01:44:03;;;;;;;8.32;1.70;;;23.50;99.90;;;;;;5060578;28;20471;-75
2022/02/02 01:46:33;;;;;;;4.78;1.45;;;23.50;99.90;;;;;;5058133;28;20043;-76
2022/02/02 01:49:57;;;;;;;4.40;1.63;;;23.60;99.90;;;;;;5063126;28;20437;-75
2022/02/02 01:52:13;;;;;;;5.40;1.67;;;23.70;99.90;;;;;;5049870;28;20398;-75
2022/02/02 01:57:48;;;;;;;6.53;1.30;;;23.70;99.90;;;;;;5053454;28;20539;-74
2022/02/02 02:00:12;;;;;;;6.75;1.55;;;23.80;99.90;;;;;;5052775;28;20406;-73
2022/02/02 02:02:40;;;;;;;7.35;1.10;;;23.90;99.90;;;;;;5048213;28;20533;-74
2022/02/02 02:05:07;;;;;;;5.95;1.05;;;23.90;99.90;;;;;;5054887;28;20383;-75
2022/02/02 02:07:36;;;;;;;5.40;1.73;;;23.90;99.90;;;;;;5052620;28;20033;-75
2022/02/02 02:10:04;;;;;;;5.72;0.98;;;24.00;99.90;;;;;;5056507;28;20045;-75
2022/02/02 02:12:50;;;;;;;8.52;1.55;;;24.00;99.90;;;;;;5049946;28;20031;-73
2022/02/02 02:15:19;;;;;;;6.07;1.25;;;24.10;99.90;;;;;;5049810;28;20036;-73
2022/02/02 02:17:46;;;;;;;7.82;1.27;;;24.10;99.90;;;;;;5064233;28;20025;-74
2022/02/02 02:20:13;;;;;;;3.72;1.17;;;24.00;99.90;;;;;;5063448;28;20421;-73
2022/02/02 02:22:43;;;;;;;11.07;1.48;;;23.90;99.90;;;;;;5061580;28;20021;-73
2022/02/02 02:25:18;;;;;;;9.20;1.58;;;23.70;99.90;;;;;;5058317;28;20653;-74
2022/02/02 02:27:45;;;;;;;10.55;1.63;;;23.50;99.90;;;;;;5063297;28;20115;-75
2022/02/02 02:30:23;;;;;;;6.35;1.50;;;23.50;99.90;;;;;;5056426;28;20035;-75
2022/02/02 02:36:08;;;;;;;8.35;1.70;;;23.50;99.90;;;;;;5072786;28;20158;-75
2022/02/02 02:38:55;;;;;;;4.22;1.90;;;23.50;99.90;;;;;;5050972;28;20565;-75
2022/02/02 02:55:55;;;;;;;;;;;23.40;99.90;;;;;;4997866;28;20245;-73
2022/02/02 03:29:51;;;;;;;4.07;0.93;;;23.40;99.90;;;;;;5049900;28;20379;-74
2022/02/02 03:31:33;;;;;;;6.65;1.08;;;23.40;99.90;;;;;;5064817;28;20039;-74
2022/02/02 04:06:02;;;;;;;6.75;1.02;;;22.90;99.90;;;;;;5053361;28;20120;-75
2022/02/02 04:08:33;;;;;;;5.28;1.30;;;22.90;99.90;;;;;;5052647;28;20013;-76
2022/02/02 04:11:04;;;;;;;5.85;1.23;;;22.80;99.90;;;;;;5050806;28;20120;-75
2022/02/02 04:38:02;;;;;;;8.23;2.15;;;22.40;99.90;;;;;;5062199;28;20051;-74
2022/02/02 04:54:43;;;;;;;8.25;1.50;;;22.50;99.90;;;;;;5029021;28;20044;-74
2022/02/02 04:57:45;;;;;;;3.63;0.85;;;22.50;99.90;;;;;;5019228;28;20030;-75
2022/02/02 05:00:48;;;;;;;6.80;1.08;;;22.60;99.90;;;;;;5045736;28;20045;-75
2022/02/02 05:11:54;;;;;;;11.85;1.52;;;22.30;99.90;;;;;;5040740;28;20167;-75
2022/02/02 05:23:15;;;;;;;6.43;1.00;;;22.10;99.90;;;;;;5050505;28;20087;-77
2022/02/02 05:26:27;;;;;;;6.15;1.20;;;22.20;99.90;;;;;;5050434;28;20272;-76
2022/02/02 05:49:46;;;;;;;3.38;0.70;;;22.20;99.90;;;;;;5051750;28;20083;-76
2022/02/02 05:52:14;;;;;;;5.18;1.35;;;22.20;99.90;;;;;;5051645;28;20044;-76
2022/02/02 05:54:41;;;;;;;3.25;1.00;;;22.20;99.90;;;;;;5049441;28;20413;-76
2022/02/02 05:57:16;;;;;;;10.40;1.23;;;22.20;99.90;;;;;;5051361;28;20392;-75
2022/02/02 05:59:44;;;;;;;6.95;0.98;;;22.20;99.90;;;;;;5054271;28;20052;-75
2022/02/02 06:02:14;;;;;;;9.38;2.10;;;22.10;99.90;;;;;;5062815;28;20020;-78
2022/02/02 06:04:48;;;;;;;5.03;1.15;;;22.10;99.90;;;;;;5055559;28;20033;-73
2022/02/02 06:07:16;;;;;;;4.72;1.20;;;22.10;99.90;;;;;;5065036;28;20054;-75
2022/02/02 06:09:48;;;;;;;8.38;2.30;;;22.00;99.90;;;;;;5058532;28;20036;-74
2022/02/02 06:12:20;;;;;;;7.03;1.10;;;22.00;99.90;;;;;;5057624;28;20032;-75
2022/02/02 06:14:50;;;;;;;7.07;1.75;;;22.00;99.90;;;;;;5057550;28;20036;-75
2022/02/02 06:17:19;;;;;;;5.32;0.90;;;22.00;99.90;;;;;;5059554;28;20090;-74
2022/02/02 06:19:46;;;;;;;5.30;1.30;;;22.00;99.90;;;;;;5063427;28;20055;-74
2022/02/02 06:22:20;;;;;;;6.20;1.60;;;22.00;99.90;;;;;;5058636;28;20048;-75
2022/02/02 06:24:56;;;;;;;9.57;1.98;;;22.00;99.90;;;;;;5065226;28;20110;-75
2022/02/02 06:27:28;;;;;;;8.63;1.27;;;21.90;99.90;;;;;;5067093;28;20047;-74
2022/02/02 06:30:03;;;;;;;6.93;1.50;;;21.90;99.90;;;;;;5064853;28;20525;-74
2022/02/02 06:32:35;;;;;;;;;;;22.00;99.90;;;;;;5055042;28;20372;-75
2022/02/02 06:35:07;;;;;;;9.85;1.58;;;22.00;99.90;;;;;;5062223;28;20149;-75
2022/02/02 06:37:39;;;;;;;12.60;2.50;;;21.90;99.90;;;;;;5064195;28;20041;-73
2022/02/02 06:40:07;;;;;;;7.28;1.52;;;21.90;99.90;;;;;;5068560;28;20055;-74
2022/02/02 06:42:37;;;;;;;4.55;1.83;;;21.80;99.90;;;;;;5066320;28;20041;-74
2022/02/02 06:45:06;;;;;;;6.82;1.73;;;21.80;99.90;;;;;;5057575;28;20036;-75
2022/02/02 06:47:35;;;;;;;10.07;1.63;;;21.80;99.90;;;;;;5058257;28;20040;-75
2022/02/02 06:50:13;;;;;;;13.23;2.88;;;21.70;99.90;;;;;;5058732;28;20039;-75
2022/02/02 06:52:46;;;;;;;6.32;1.23;;;21.70;99.90;;;;;;5052385;28;20024;-75
2022/02/02 06:55:36;;;;;;;10.40;2.10;;;21.60;99.90;;;;;;5061999;28;20029;-76
2022/02/02 06:58:24;;;;;;;7.97;3.05;;;21.60;99.90;;;;;;5050739;28;20071;-75
2022/02/02 07:06:58;;;;;;;4.28;1.25;;;21.40;99.90;;;;;;5012491;28;20223;-76
2022/02/02 07:09:50;;;;;;;11.38;2.25;;;21.40;99.90;;;;;;5053051;28;20044;-77
2022/02/02 07:12:35;;;;;;;10.02;1.58;;;21.30;99.90;;;;;;5057098;28;20056;-74
2022/02/02 07:16:13;;;;;;;4.85;1.50;;;21.30;99.90;;;;;;5053665;28;20036;-75
2022/02/02 07:23:42;;;;;;;6.40;1.23;;;21.30;99.90;;;;;;5066211;28;20020;-75
2022/02/02 07:29:06;;;;;;;3.72;1.25;;;21.30;99.90;;;;;;5067568;28;20063;-75
2022/02/02 07:32:03;;;;;;;3.83;1.83;;;21.10;99.90;;;;;;5062468;28;20032;-74
2022/02/02 07:34:44;;;;;;;;;;;21.00;99.90;;;;;;5055428;28;20123;-75
2022/02/02 07:37:17;;;;;;;4.47;1.35;;;20.90;99.90;;;;;;5062848;28;20259;-75
2022/02/02 07:39:45;;;;;;;9.52;1.55;;;20.80;99.90;;;;;;5067310;28;20033;-74
2022/02/02 07:42:13;;;;;;;13.75;1.95;;;20.90;99.90;;;;;;5066813;28;20049;-75
2022/02/02 07:44:43;;;;;;;9.80;1.70;;;20.80;99.90;;;;;;5069594;28;20043;-75
2022/02/02 07:47:12;;;;;;;10.40;1.95;;;20.80;99.90;;;;;;5052042;28;20425;-73
2022/02/02 07:49:48;;;;;;;8.40;2.20;;;20.70;99.90;;;;;;5065116;28;20025;-74
2022/02/02 07:52:19;;;;;;;10.02;2.83;;;20.70;99.90;;;;;;5053177;28;20102;-73
2022/02/02 07:54:49;;;;;;;5.35;2.33;;;20.60;99.90;;;;;;5062411;28;20033;-75
2022/02/02 07:57:25;;;;;;;7.47;2.03;;;20.50;99.90;;;;;;5046912;28;20040;-73
2022/02/02 07:59:58;;;;;;;6.93;1.80;;;20.50;99.90;;;;;;5064417;28;20124;-74
2022/02/02 08:02:44;;;;;;;5.63;1.70;;;20.50;99.90;;;;;;5062139;28;20041;-73
2022/02/02 08:05:12;;;;;;;5.85;1.60;;;20.60;99.90;;;;;;5066538;28;20428;-73
2022/02/02 08:07:46;;;;;;;5.25;2.55;;;20.50;99.90;;;;;;5065419;28;20024;-73
2022/02/02 08:10:18;;;;;;;9.15;1.92;;;20.40;99.90;;;;;;5067188;28;20495;-73
2022/02/02 08:12:56;;;;;;;18.67;2.80;;;20.30;99.90;;;;;;5062999;28;20514;-73
2022/02/02 08:15:28;;;;;;;9.98;2.45;;;20.30;99.90;;;;;;5066547;28;20028;-73
2022/02/02 08:17:55;;;;;;;6.28;2.15;;;20.30;99.90;;;;;;5070372;28;20455;-74
2022/02/02 08:20:24;;;;;;;8.90;3.90;;;20.30;99.90;;;;;;5069430;28;20052;-74
2022/02/02 08:22:52;;;;;;;7.60;2.30;;;20.20;99.90;;;;;;5070511;28;20115;-73
2022/02/02 08:27:57;;;;;;;5.60;2.13;;;20.20;99.90;;;;;;5070080;28;20124;-73
2022/02/02 08:30:28;;;;;;;5.28;2.33;;;20.20;99.90;;;;;;5072461;28;20100;-74
2022/02/02 08:33:01;;;;;;;6.25;2.70;;;20.20;99.90;;;;;;5070612;28;20037;-73
2022/02/02 08:35:33;;;;;;;5.20;2.40;;;20.20;99.90;;;;;;5060561;28;20036;-73
2022/02/02 08:38:37;;;;;;;7.50;2.25;;;20.10;99.90;;;;;;5066768;28;20017;-73
2022/02/02 08:43:52;;;;;;;7.78;2.95;;;20.00;99.90;;;;;;5065913;28;20423;-73
2022/02/02 08:46:28;;;;;;;8.73;2.63;;;20.00;99.90;;;;;;5061867;28;20060;-73
2022/02/02 08:48:57;;;;;;;6.50;2.88;;;20.00;99.90;;;;;;5061212;28;20095;-74
2022/02/02 08:51:31;;;;;;;7.18;2.83;;;19.90;99.90;;;;;;5060721;28;20040;-74
2022/02/02 08:59:39;;;;;;;8.43;2.75;;;19.80;99.90;;;;;;5071662;28;20609;-74
2022/02/02 09:02:12;;;;;;;5.97;3.53;;;19.80;99.90;;;;;;5063160;28;20086;-74
2022/02/02 09:07:26;;;;;;;6.47;3.80;;;19.80;99.90;;;;;;5064951;28;20027;-75
2022/02/02 09:10:00;;;;;;;5.40;3.13;;;19.80;99.90;;;;;;5068123;28;20035;-72
2022/02/02 09:26:20;;;;;;;7.50;3.08;;;19.70;99.90;;;;;;5062760;28;20029;-73
2022/02/02 09:31:43;;;;;;;14.50;4.60;;;19.80;99.90;;;;;;5062143;28;20039;-73
2022/02/02 09:34:12;;;;;;;5.10;3.05;;;19.70;99.90;;;;;;5052960;28;20071;-72
2022/02/02 09:36:43;;;;;;;9.75;3.63;;;19.70;99.90;;;;;;5058203;28;20032;-73
2022/02/02 09:39:19;;;;;;;9.18;3.78;;;19.70;99.90;;;;;;5063367;28;20052;-73
2022/02/02 09:41:50;;;;;;;7.10;2.42;;;19.70;99.90;;;;;;5062403;28;20582;-73
2022/02/02 09:44:23;;;;;;;10.63;2.78;;;19.80;99.90;;;;;;5072416;28;20036;-73
2022/02/02 09:47:02;;;;;;;6.05;3.17;;;19.80;99.90;;;;;;5062901;28;20486;-73
2022/02/02 09:49:39;;;;;;;9.13;4.15;;;19.80;99.90;;;;;;5060249;28;20637;-73
2022/02/02 09:52:16;;;;;;;4.68;2.72;;;19.80;99.90;;;;;;5062304;28;20068;-73
2022/02/02 09:54:58;;;;;;;9.18;3.13;;;19.90;99.90;;;;;;5059918;28;20044;-74
2022/02/02 09:57:53;;;;;;;8.48;3.30;;;19.90;99.90;;;;;;5061483;28;20047;-73
2022/02/02 10:06:32;;;;;;;10.32;2.63;;;20.00;99.90;;;;;;5061866;28;19912;-74
2022/02/02 10:14:15;;;;;;;9.05;3.03;;;20.00;99.90;;;;;;5069146;28;20033;-73
2022/02/02 10:16:49;;;;;;;6.83;2.33;;;20.00;99.90;;;;;;5064131;28;20426;-73
2022/02/02 10:19:32;;;;;;;7.13;2.33;;;20.00;99.90;;;;;;5070363;28;20100;-72
2022/02/02 10:22:00;;;;;;;9.30;2.85;;;19.90;99.90;;;;;;5060856;28;20037;-73
2022/02/02 10:24:48;;;;;;;6.90;2.13;;;19.90;99.90;;;;;;5067175;28;20526;-73
2022/02/02 10:27:43;;;;;;;5.10;2.90;;;19.90;99.90;;;;;;5050966;28;20090;-73
2022/02/02 10:30:14;;;;;;;10.48;3.85;;;19.90;99.90;;;;;;5059711;28;20119;-73
2022/02/02 10:32:47;;;;;;;9.10;2.40;;;19.90;99.90;;;;;;5067201;28;20029;-73
2022/02/02 10:35:39;;;;;;;7.30;2.72;;;19.80;99.90;;;;;;5070538;28;20033;-73
2022/02/02 10:38:12;;;;;;;8.25;2.65;;;19.80;99.90;;;;;;5068179;28;20039;-74
2022/02/02 10:40:54;;;;;;;12.88;2.67;;;19.80;99.90;;;;;;5063675;28;20430;-74
2022/02/02 10:43:39;;;;;;;7.93;2.30;;;19.80;99.90;;;;;;5054571;28;20119;-73
2022/02/02 10:46:51;;;;;;;8.13;2.75;;;19.70;99.90;;;;;;5056865;28;20047;-73
2022/02/02 10:49:27;;;;;;;6.30;2.17;;;19.70;99.90;;;;;;5074452;28;20040;-73
2022/02/02 10:54:42;;;;;;;8.48;2.17;;;19.80;99.90;;;;;;5060306;28;20040;-74
2022/02/02 10:57:28;;;;;;;9.48;2.00;;;19.70;99.90;;;;;;5067588;28;20025;-73
2022/02/02 11:00:03;;;;;;;11.00;2.17;;;19.80;99.90;;;;;;5064582;28;20365;-73
2022/02/02 11:08:02;;;;;;;8.60;2.13;;;19.80;99.90;;;;;;5063736;28;20055;-73
2022/02/02 11:10:30;;;;;;;12.77;2.05;;;19.80;99.90;;;;;;5063791;28;20029;-74
2022/02/02 11:12:59;;;;;;;4.30;2.08;;;19.80;99.90;;;;;;5054178;28;20032;-73
2022/02/02 11:15:29;;;;;;;8.00;2.15;;;19.70;99.90;;;;;;5061802;28;20024;-73
2022/02/02 11:18:06;;;;;;;8.77;1.77;;;19.70;99.90;;;;;;5053817;28;20025;-74
2022/02/02 11:20:37;;;;;;;7.15;1.50;;;19.70;99.90;;;;;;5061496;28;20344;-73
2022/02/02 11:23:06;;;;;;;5.50;1.65;;;19.70;99.90;;;;;;5064332;28;20060;-73
2022/02/02 11:25:49;;;;;;;5.65;1.60;;;19.80;99.90;;;;;;5064841;28;20029;-73
2022/02/02 11:28:32;;;;;;;8.40;2.05;;;19.80;99.90;;;;;;5052003;28;20040;-72
2022/02/02 11:31:18;;;;;;;7.25;2.00;;;19.80;99.90;;;;;;5057248;28;20037;-73
2022/02/02 11:33:57;;;;;;;6.60;1.38;;;19.80;99.90;;;;;;5061741;28;20509;-73
2022/02/02 11:36:36;;;;;;;3.88;1.48;;;19.80;99.90;;;;;;5067029;28;20499;-73
2022/02/02 11:39:25;;;;;;;4.32;1.77;;;19.80;99.90;;;;;;5064892;28;20032;-71
2022/02/02 11:41:58;;;;;;;8.50;2.40;;;19.60;99.90;;;;;;5059099;28;20076;-74
2022/02/02 11:44:46;;;;;;;4.95;1.42;;;19.60;99.90;;;;;;5068465;28;20101;-75
2022/02/02 11:50:03;;;;;;;6.05;1.35;;;19.40;99.90;;;;;;5069947;28;20033;-73
2022/02/02 11:52:45;;;;;;;6.88;1.52;;;19.40;99.90;;;;;;5067143;28;20028;-72
2022/02/02 11:55:12;;;;;;;9.88;2.15;;;19.40;99.90;;;;;;5068131;28;20074;-74
2022/02/02 11:58:12;;;;;;;3.35;0.90;;;19.40;99.90;;;;;;5067296;28;20032;-73
2022/02/02 12:01:38;;;;;;;7.88;1.65;;;19.40;99.90;;;;;;5064857;28;20511;-74
2022/02/02 12:09:30;;;;;;;5.47;1.52;;;19.40;99.90;;;;;;5063049;28;20033;-73
2022/02/02 12:57:57;;;;;;;8.07;1.90;;;19.10;99.90;;;;;;5055059;28;20059;-73
2022/02/02 13:00:36;;;;;;;11.32;2.28;;;19.10;99.90;;;;;;5064064;28;20078;-73
2022/02/02 13:03:05;;;;;;;5.28;1.02;;;19.10;99.90;;;;;;5057077;28;20037;-74
2022/02/02 13:05:35;;;;;;;6.97;1.15;;;19.10;99.90;;;;;;5061495;28;20044;-74
2022/02/02 13:08:03;;;;;;;6.25;1.75;;;19.00;99.90;;;;;;5068473;28;20040;-77
2022/02/02 13:10:36;;;;;;;6.07;1.20;;;19.00;99.90;;;;;;5052734;28;20207;-75
2022/02/02 13:13:20;;;;;;;5.22;1.05;;;19.00;99.90;;;;;;5069951;28;20032;-74
2022/02/02 13:15:57;;;;;;;7.55;1.10;;;19.00;99.90;;;;;;5058145;28;20032;-76
2022/02/02 13:21:11;;;;;;;5.22;1.17;;;18.90;99.90;;;;;;5062525;28;20059;-76
2022/02/02 13:26:19;;;;;;;4.40;0.98;;;18.90;99.90;;;;;;5063880;28;20044;-77
2022/02/02 13:31:44;;;;;;;7.65;1.00;;;18.90;99.90;;;;;;5068782;28;20410;-76
2022/02/02 13:34:25;;;;;;;7.35;1.00;;;18.90;99.90;;;;;;5051110;28;20098;-77
2022/02/02 13:37:16;;;;;;;3.08;0.90;;;18.90;99.90;;;;;;5058976;28;20039;-77
2022/02/02 13:45:38;;;;;;;6.25;0.80;;;18.90;99.90;;;;;;5067980;28;20056;-74
2022/02/02 14:05:18;;;;;;;3.83;0.87;;;18.90;99.90;;;;;;5055765;28;20372;-76
2022/02/02 14:07:59;;;;;;;14.95;1.30;;;18.90;99.90;;;;;;5054697;28;20052;-75
2022/02/02 14:10:44;;;;;;;4.25;1.02;;;18.90;99.90;;;;;;5055976;28;20501;-75
2022/02/02 14:32:31;;;;;;;5.17;1.10;;;18.90;99.90;;;;;;5067097;28;20775;-75
2022/02/02 14:34:58;;;;;;;4.68;0.65;;;18.90;99.90;;;;;;5056988;28;20460;-76
2022/02/02 14:37:35;;;;;;;5.28;1.85;;;18.90;99.90;;;;;;5060235;28;20024;-75
2022/02/02 14:40:13;;;;;;;5.88;1.48;;;18.90;99.90;;;;;;5065302;28;20032;-75
2022/02/02 14:42:42;;;;;;;5.68;0.77;;;18.90;99.90;;;;;;5064005;28;20384;-76
2022/02/02 14:45:13;;;;;;;3.25;0.70;;;18.80;99.90;;;;;;5067540;28;20103;-76
2022/02/02 14:47:46;;;;;;;5.10;1.45;;;18.90;99.90;;;;;;5058318;28;20098;-76
2022/02/02 14:50:38;;;;;;;6.97;1.83;;;18.90;99.90;;;;;;5070207;28;20032;-77
2022/02/02 14:53:16;;;;;;;5.53;0.88;;;18.90;99.90;;;;;;5067792;28;20174;-76
2022/02/02 14:56:19;;;;;;;6.75;1.00;;;18.90;99.90;;;;;;5060352;28;20033;-75
2022/02/02 15:09:56;;;;;;;5.65;1.67;;;18.90;99.90;;;;;;5067411;28;20113;-76
2022/02/02 15:28:18;;;;;;;7.20;1.38;;;18.90;99.90;;;;;;5070846;28;20468;-76
2022/02/02 15:33:19;;;;;;;5.78;0.68;;;18.90;99.90;;;;;;5070021;28;20064;-75
2022/02/02 15:35:48;;;;;;;4.28;1.00;;;18.90;99.90;;;;;;5064130;28;20102;-74
2022/02/02 15:38:21;;;;;;;6.95;1.10;;;18.90;99.90;;;;;;5071449;28;20099;-75
2022/02/02 15:40:58;;;;;;;5.13;0.98;;;18.90;99.90;;;;;;5053353;28;20064;-75
2022/02/02 15:43:37;;;;;;;6.35;0.82;;;18.90;99.90;;;;;;5055177;28;20059;-76
2022/02/02 16:03:02;;;;;;;6.90;1.45;;;18.80;99.90;;;;;;5068187;28;20121;-75
2022/02/02 16:05:26;;;;;;;3.95;1.02;;;18.80;99.90;;;;;;5057002;28;20079;-75
2022/02/02 16:07:56;;;;;;;6.65;1.40;;;18.70;99.90;;;;;;5069867;28;20440;-75
2022/02/02 16:10:39;;;;;;;3.17;0.70;;;18.70;99.90;;;;;;5058863;28;20099;-75
2022/02/02 16:13:15;;;;;;;6.32;0.77;;;18.70;99.90;;;;;;5063399;28;20028;-75
2022/02/02 16:15:42;;;;;;;4.40;1.13;;;18.70;99.90;;;;;;5054293;28;20039;-75
2022/02/02 16:18:35;;;;;;;8.88;2.35;;;18.70;99.90;;;;;;5060804;28;20460;-75
2022/02/02 16:37:44;;;;;;;5.45;0.88;;;18.70;99.90;;;;;;5064405;28;19912;-75
2022/02/02 16:40:19;;;;;;;4.57;1.27;;;18.70;99.90;;;;;;5065888;28;20115;-75
2022/02/02 16:45:33;;;;;;;2.92;0.52;;;18.70;99.90;;;;;;5059139;28;20059;-75
2022/02/02 16:48:01;;;;;;;2.65;0.70;;;18.70;99.90;;;;;;5051389;28;20108;-76
2022/02/02 16:50:35;;;;;;;5.00;0.95;;;18.70;99.90;;;;;;5052217;28;20123;-75
2022/02/02 16:53:24;;;;;;;10.27;1.00;;;18.70;99.90;;;;;;5069768;28;20119;-75
2022/02/02 16:56:08;;;;;;;5.15;0.90;;;18.70;99.90;;;;;;5059963;28;20134;-75
2022/02/02 17:31:54;;;;;;;2.50;0.70;;;18.70;99.90;;;;;;5071455;28;20024;-75
2022/02/02 17:37:05;;;;;;;4.25;2.30;;;18.70;99.90;;;;;;5060955;28;20028;-76
2022/02/02 17:39:50;;;;;;;1.50;0.63;;;18.70;99.90;;;;;;5052537;28;20086;-75
2022/02/02 17:42:55;;;;;;;2.92;0.85;;;18.70;99.90;;;;;;5060836;28;20455;-76
2022/02/02 17:57:19;;;;;;;3.35;1.13;;;18.70;99.90;;;;;;5059781;28;20139;-74
2022/02/02 18:03:13;;;;;;;6.00;1.05;;;18.70;99.90;;;;;;5068278;28;20122;-73
2022/02/02 18:14:30;;;;;;;2.70;0.70;;;18.70;99.90;;;;;;5050499;28;20039;-75
2022/02/02 18:17:26;;;;;;;4.82;0.85;;;18.70;99.90;;;;;;5055801;28;20414;-74
2022/02/02 18:19:12;;;;;;;4.38;0.73;;;18.70;99.90;;;;;;5050309;28;20040;-72
2022/02/02 18:21:40;;;;;;;2.67;0.47;;;18.70;99.90;;;;;;5054863;28;20114;-76
2022/02/02 18:29:37;;;;;;;6.72;0.65;;;18.70;99.90;;;;;;5070105;28;20017;-76
2022/02/02 18:34:44;;;;;;;5.72;1.42;;;18.70;99.90;;;;;;5063907;28;20037;-75
2022/02/02 18:37:56;;;;;;;1.75;0.45;;;18.70;99.90;;;;;;5063258;28;20020;-74
2022/02/02 18:43:30;;;;;;;3.45;0.80;;;18.70;99.90;;;;;;5014715;28;20557;-76
2022/02/02 18:46:20;;;;;;;4.80;0.45;;;18.70;99.90;;;;;;5058032;28;20371;-76
2022/02/02 18:48:54;;;;;;;3.53;0.50;;;18.70;99.90;;;;;;5058212;28;20039;-75
2022/02/02 18:51:53;;;;;;;2.97;0.50;;;18.70;99.90;;;;;;5067508;28;20376;-76
2022/02/02 18:56:58;;;;;;;2.65;0.60;;;18.70;99.90;;;;;;5059139;28;20131;-77
2022/02/02 19:02:43;;;;;;;0.55;0.32;;;18.70;99.90;;;;;;5062962;28;20151;-76
2022/02/02 19:05:25;;;;;;;2.88;0.57;;;18.70;99.90;;;;;;5051801;28;20552;-75
2022/02/02 19:14:35;;;;;;;;;;;;;;;;;;;;;
2022/02/02 19:57:22;;;;;;;2.28;0.20;;;18.60;99.90;;;;;;5066692;28;20032;-74
2022/02/02 20:05:59;;;;;;;3.85;0.60;;;18.70;99.90;;;;;;5056948;28;20178;-73
2022/02/02 20:11:03;;;;;;;0.90;0.20;;;18.60;99.90;;;;;;5071240;28;20043;-73
2022/02/02 20:13:34;;;;;;;6.20;0.35;;;18.60;99.90;;;;;;5052716;28;20048;-74
2022/02/02 20:16:02;;;;;;;0.98;0.40;;;18.70;99.90;;;;;;5052341;28;20020;-75
2022/02/02 20:18:34;;;;;;;6.93;0.50;;;18.70;99.90;;;;;;5069019;28;20108;-74
2022/02/02 20:21:07;;;;;;;3.55;0.55;;;18.70;99.90;;;;;;5062941;28;20032;-75
2022/02/02 20:23:41;;;;;;;2.67;0.35;;;18.80;99.90;;;;;;5071336;28;20028;-75
2022/02/02 20:26:11;;;;;;;5.22;0.40;;;18.90;99.90;;;;;;5068738;28;20135;-75
2022/02/02 20:28:38;;;;;;;4.57;0.80;;;19.00;99.90;;;;;;5071417;28;20115;-74
2022/02/02 20:31:06;;;;;;;1.05;0.30;;;19.00;99.90;;;;;;5069212;28;20031;-74
2022/02/02 20:33:33;;;;;;;4.55;0.90;;;19.00;99.90;;;;;;5067718;28;20120;-75
2022/02/02 20:36:01;;;;;;;2.10;0.22;;;19.20;99.90;;;;;;5064198;28;20036;-74
2022/02/02 20:38:28;;;;;;;3.83;1.10;;;19.40;99.90;;;;;;5057298;28;20021;-73
2022/02/02 20:40:55;;;;;;;3.58;0.45;;;19.50;99.90;;;;;;5052631;28;20772;-73
2022/02/02 21:10:26;;;;;;;6.25;0.50;;;19.90;99.90;;;;;;5071297;28;20052;-76
2022/02/02 21:15:40;;;;;;;5.88;0.98;;;20.00;99.90;;;;;;5056904;28;20070;-76
2022/02/02 21:18:15;;;;;;;1.85;0.50;;;20.20;99.90;;;;;;5071138;28;20040;-76
2022/02/02 21:23:25;;;;;;;9.10;0.90;;;20.20;99.90;;;;;;5068153;28;20344;-75
2022/02/02 21:28:35;;;;;;;6.35;0.40;;;20.20;99.90;;;;;;5070476;28;20029;-75
2022/02/02 21:31:04;;;;;;;0.82;0.20;;;20.20;99.90;;;;;;5065569;28;20051;-72
2022/02/02 21:33:33;;;;;;;4.25;0.30;;;20.40;99.90;;;;;;5070611;28;20060;-75
2022/02/02 21:36:01;;;;;;;4.28;1.35;;;20.60;99.90;;;;;;5067099;28;20064;-73
2022/02/02 21:38:35;;;;;;;2.40;0.57;;;20.80;99.90;;;;;;5071221;28;20100;-73
2022/02/02 21:41:02;;;;;;;4.60;0.75;;;21.00;99.90;;;;;;5052292;28;20052;-74
2022/02/02 21:43:31;;;;;;;6.03;0.88;;;21.00;99.90;;;;;;5062203;28;20075;-76
2022/02/02 21:45:58;;;;;;;2.78;0.63;;;21.00;99.90;;;;;;5056314;28;20066;-74
2022/02/02 21:48:31;;;;;;;5.88;0.70;;;21.30;99.90;;;;;;5070598;28;20017;-76
2022/02/02 21:51:07;;;;;;;4.90;0.50;;;21.60;99.90;;;;;;5063534;28;20085;-75
2022/02/02 21:53:34;;;;;;;8.88;0.82;;;21.70;99.70;;;;;;5062479;28;20037;-75
2022/02/02 21:56:02;;;;;;;1.58;0.50;;;21.80;99.40;;;;;;5058400;28;20047;-72
2022/02/02 21:58:30;;;;;;;6.40;1.20;;;21.90;99.60;;;;;;5067351;28;20112;-72
2022/02/02 22:00:57;;;;;;;6.55;2.35;;;22.00;98.90;;;;;;5054910;28;20025;-72
2022/02/02 22:03:24;;;;;;;5.93;1.17;;;22.10;99.30;;;;;;5052421;28;20078;-72
2022/02/02 22:05:52;;;;;;;2.38;0.90;;;22.20;99.20;;;;;;5060165;28;20029;-73
2022/02/02 22:08:19;;;;;;;4.47;0.60;;;22.30;98.90;;;;;;5057339;28;20052;-72
2022/02/02 22:10:48;;;;;;;5.93;0.63;;;22.40;98.60;;;;;;5068325;28;20539;-71
2022/02/02 22:13:17;;;;;;;3.03;0.32;;;22.50;98.30;;;;;;5063258;28;20097;-72
2022/02/02 22:15:52;;;;;;;4.75;0.55;;;22.50;98.30;;;;;;5058343;28;20473;-73
2022/02/02 22:18:20;;;;;;;1.23;0.60;;;22.50;98.60;;;;;;5066417;28;20033;-74
2022/02/02 22:20:49;;;;;;;4.00;0.60;;;22.50;98.20;;;;;;5057902;28;20055;-73
2022/02/02 22:23:17;;;;;;;5.45;0.35;;;22.50;98.40;;;;;;5064426;28;20109;-73
2022/02/02 22:25:44;;;;;;;3.63;0.60;;;22.40;98.10;;;;;;5066613;28;20028;-73
2022/02/02 22:28:12;;;;;;;1.75;0.55;;;22.50;98.00;;;;;;5065510;28;20483;-75
2022/02/02 22:30:39;;;;;;;4.55;1.10;;;22.50;98.10;;;;;;5058339;28;20070;-74
2022/02/02 22:33:06;;;;;;;6.80;0.38;;;22.30;98.00;;;;;;5057211;28;20044;-76
2022/02/02 22:35:34;;;;;;;1.60;0.30;;;22.20;98.60;;;;;;5051188;28;20044;-73
2022/02/02 22:38:01;;;;;;;4.10;0.50;;;22.10;98.60;;;;;;5061581;28;20028;-72
2022/02/02 22:40:29;;;;;;;3.17;0.68;;;22.00;98.20;;;;;;5058716;28;20503;-72
2022/02/02 22:42:56;;;;;;;5.28;1.17;;;22.00;98.70;;;;;;5067227;28;20237;-73
2022/02/02 22:45:24;;;;;;;3.03;0.40;;;22.40;98.30;;;;;;5049258;28;20761;-73
2022/02/02 22:47:51;;;;;;;4.45;1.17;;;23.10;98.00;;;;;;5067414;28;20044;-73
2022/02/02 22:50:21;;;;;;;3.83;0.55;;;23.50;97.20;;;;;;5061135;28;20029;-73
2022/02/02 22:52:52;;;;;;;5.03;0.60;;;23.70;97.20;;;;;;5060338;28;20177;-73
2022/02/02 22:55:20;;;;;;;2.28;0.55;;;24.20;96.80;;;;;;5066619;28;20129;-75
2022/02/02 22:57:48;;;;;;;4.25;0.85;;;24.70;96.10;;;;;;5063484;28;20020;-74
2022/02/02 23:00:19;;;;;;;4.22;0.60;;;25.00;95.60;;;;;;5052676;28;20032;-74
2022/02/02 23:02:53;;;;;;;9.52;0.80;;;25.50;95.50;;;;;;5058155;28;20037;-75
2022/02/02 23:05:26;;;;;;;6.55;0.40;;;25.60;94.10;;;;;;5056335;28;20057;-74
2022/02/02 23:07:53;;;;;;;3.67;0.70;;;25.40;94.40;;;;;;5057003;28;20029;-74